Time;durP1;ratioP1;P1;durP2;ratioP2;P2;SDS_P1;SDS_P2;PMS_P1;PMS_P2;Temp;Humidity;BMP_temperature;BMP_pressure;BME280_temperature;BME280_humidity;BME280_pressure;Samples;Min_cycle;Max_cycle;Signal;HPM_P1;HPM_P2
2022/09/18 00:00:37;;;;;;;7.07;2.50;;;;;;;9.66;100.00;101387.19;1994203;28;20032;-67
2022/09/18 00:01:35;;;;;;;9.82;2.60;;;;;;;9.65;100.00;101385.47;1994049;28;20028;-67
2022/09/18 00:02:33;;;;;;;7.55;2.47;;;;;;;9.64;100.00;101388.97;1994107;28;20150;-65
2022/09/18 00:03:30;;;;;;;12.50;2.88;;;;;;;9.66;100.00;101381.97;1994091;28;20024;-67
2022/09/18 00:04:29;;;;;;;13.38;2.83;;;;;;;9.67;100.00;101381.06;1994051;28;20356;-66
2022/09/18 00:05:27;;;;;;;8.60;2.92;;;;;;;9.67;100.00;101383.66;1994082;28;20043;-65
2022/09/18 00:06:28;;;;;;;9.18;2.65;;;;;;;9.69;100.00;101384.50;1994120;28;20036;-67
2022/09/18 00:07:26;;;;;;;10.82;2.75;;;;;;;9.67;100.00;101383.66;1993434;28;20537;-65
2022/09/18 00:08:23;;;;;;;6.45;2.95;;;;;;;9.67;100.00;101383.66;1993490;28;20108;-66
2022/09/18 00:09:21;;;;;;;8.60;3.33;;;;;;;9.64;100.00;101378.53;1991824;28;20413;-66
2022/09/18 00:10:18;;;;;;;11.10;3.40;;;;;;;9.68;100.00;101384.53;1993951;28;20036;-66
2022/09/18 00:11:15;;;;;;;10.63;3.35;;;;;;;9.68;100.00;101387.97;1994136;28;20032;-66
2022/09/18 00:12:13;;;;;;;5.88;3.50;;;;;;;9.69;100.00;101387.09;1993949;28;20096;-66
2022/09/18 00:13:11;;;;;;;13.90;4.00;;;;;;;9.68;100.00;101385.38;1993986;28;20039;-66
2022/09/18 00:14:14;;;;;;;9.55;3.97;;;;;;;9.69;100.00;101392.31;1993700;28;20029;-66
2022/09/18 00:15:11;;;;;;;12.60;4.20;;;;;;;9.69;100.00;101389.69;1993867;28;20028;-66
2022/09/18 00:16:13;;;;;;;9.55;4.05;;;;;;;9.70;100.00;101388.78;1993892;28;20033;-66
2022/09/18 00:17:10;;;;;;;10.30;4.28;;;;;;;9.69;100.00;101384.50;1993904;28;20032;-67
2022/09/18 00:18:08;;;;;;;12.38;4.47;;;;;;;9.71;100.00;101387.88;1993894;28;20035;-68
2022/09/18 00:19:06;;;;;;;8.95;4.10;;;;;;;9.68;100.00;101381.94;1993926;28;20502;-66
2022/09/18 00:20:04;;;;;;;9.73;4.63;;;;;;;9.69;100.00;101386.22;1993989;28;20027;-66
2022/09/18 00:21:08;;;;;;;11.45;4.75;;;;;;;9.69;100.00;101386.22;1993954;28;20024;-66
2022/09/18 00:22:05;;;;;;;11.93;4.60;;;;;;;9.68;100.00;101385.38;1993430;28;20032;-66
2022/09/18 00:23:03;;;;;;;8.02;4.20;;;;;;;9.65;100.00;101380.28;1993348;28;20085;-67
2022/09/18 00:24:01;;;;;;;12.80;4.43;;;;;;;9.66;100.00;101382.81;1993916;28;20364;-67
2022/09/18 00:24:58;;;;;;;14.43;4.95;;;;;;;9.69;100.00;101387.09;1993290;28;20496;-66
2022/09/18 00:25:55;;;;;;;8.07;4.55;;;;;;;9.68;100.00;101380.16;1993472;28;20408;-68
2022/09/18 00:26:53;;;;;;;12.00;4.40;;;;;;;9.67;100.00;101383.66;1993727;28;20111;-68
2022/09/18 00:27:50;;;;;;;12.00;4.60;;;;;;;9.68;100.00;101382.75;1993980;28;20099;-65
2022/09/18 00:28:47;;;;;;;11.57;4.22;;;;;;;9.69;100.00;101381.88;1993879;28;20453;-67
2022/09/18 00:29:45;;;;;;;8.60;4.40;;;;;;;9.70;100.00;101378.38;1993227;28;20032;-67
2022/09/18 00:30:42;;;;;;;10.38;4.63;;;;;;;9.68;100.00;101374.94;1993203;28;20033;-66
2022/09/18 00:31:41;;;;;;;10.48;4.03;;;;;;;9.69;100.00;101371.47;1993764;28;20044;-67
2022/09/18 00:32:38;;;;;;;11.38;4.38;;;;;;;9.71;100.00;101374.03;1993780;28;20086;-68
2022/09/18 00:33:38;;;;;;;8.98;4.30;;;;;;;9.69;100.00;101376.69;1993838;28;20507;-68
2022/09/18 00:34:35;;;;;;;8.85;4.30;;;;;;;9.71;100.00;101368.81;1993959;28;20423;-67
2022/09/18 00:35:32;;;;;;;9.95;4.30;;;;;;;9.68;100.00;101374.94;1993805;28;20052;-67
2022/09/18 00:36:30;;;;;;;18.00;4.80;;;;;;;9.65;100.00;101369.84;1993881;28;20058;-66
2022/09/18 00:37:27;;;;;;;15.27;4.47;;;;;;;9.68;100.00;101369.72;1993836;28;20039;-67
2022/09/18 00:38:24;;;;;;;9.43;4.38;;;;;;;9.68;100.00;101372.34;1993792;28;20030;-67
2022/09/18 00:39:22;;;;;;;12.40;4.25;;;;;;;9.69;100.00;101366.25;1991671;28;20373;-68
2022/09/18 00:40:19;;;;;;;10.80;4.38;;;;;;;9.70;100.00;101364.47;1993824;28;20031;-68
2022/09/18 00:41:26;;;;;;;13.32;4.72;;;;;;;9.70;100.00;101367.94;1993753;28;20047;-68
2022/09/18 00:42:23;;;;;;;9.65;4.18;;;;;;;9.68;100.00;101369.72;1993868;28;20514;-67
2022/09/18 00:43:24;;;;;;;7.82;4.20;;;;;;;9.69;100.00;101366.25;1993729;28;20035;-66
2022/09/18 00:44:41;;;;;;;13.98;4.70;;;;;;;9.69;100.00;101366.25;1993842;28;20107;-65
2022/09/18 00:45:38;;;;;;;8.60;3.97;;;;;;;9.67;100.00;101370.63;2001047;28;20032;-67
2022/09/18 00:46:36;;;;;;;16.33;4.40;;;;;;;9.69;100.00;101376.69;2001261;28;20020;-67
2022/09/18 00:47:48;;;;;;;18.70;5.20;;;;;;;9.68;100.00;101379.31;1994403;28;20031;-68
2022/09/18 00:49:17;;;;;;;12.93;4.32;;;;;;;9.68;100.00;101368.91;1993776;28;20031;-67
2022/09/18 00:50:26;;;;;;;15.50;4.30;;;;;;;9.68;100.00;101377.56;1993686;28;20025;-68
2022/09/18 00:51:25;;;;;;;10.13;3.88;;;;;;;9.68;100.00;101385.38;1993825;28;20498;-68
2022/09/18 00:52:36;;;;;;;17.23;4.45;;;;;;;9.69;100.00;101376.69;1993741;28;20052;-67
2022/09/18 00:53:40;;;;;;;14.27;4.20;;;;;;;9.72;100.00;101373.13;1993719;28;20468;-68
2022/09/18 00:54:43;;;;;;;14.82;4.47;;;;;;;9.72;100.00;101379.16;1993789;28;20475;-68
2022/09/18 00:55:41;;;;;;;8.00;4.20;;;;;;;9.73;100.00;101372.22;1993706;28;20073;-68
2022/09/18 00:56:38;;;;;;;14.25;4.40;;;;;;;9.70;100.00;101367.09;1993734;28;20521;-67
2022/09/18 00:57:48;;;;;;;8.18;4.22;;;;;;;9.69;100.00;101371.47;1993707;28;20039;-67
2022/09/18 00:58:46;;;;;;;11.80;4.10;;;;;;;9.71;100.00;101372.25;1993813;28;20085;-67
2022/09/18 00:59:46;;;;;;;10.60;4.53;;;;;;;9.72;100.00;101376.56;1993687;28;20024;-67
2022/09/18 01:00:44;;;;;;;13.63;4.68;;;;;;;9.68;100.00;101380.16;1993739;28;20388;-67
2022/09/18 01:01:41;;;;;;;12.80;4.32;;;;;;;9.69;100.00;101374.06;1993641;28;20103;-65
2022/09/18 01:02:42;;;;;;;9.55;4.43;;;;;;;9.71;100.00;101374.03;1993366;28;20452;-64
2022/09/18 01:03:40;;;;;;;9.98;4.80;;;;;;;9.71;100.00;101368.81;1993623;28;20092;-67
2022/09/18 01:04:37;;;;;;;9.18;4.53;;;;;;;9.69;100.00;101370.59;1993551;28;20395;-67
2022/09/18 01:06:02;;;;;;;13.35;4.70;;;;;;;9.70;100.00;101367.09;1993706;28;20027;-67
2022/09/18 01:07:08;;;;;;;9.50;4.43;;;;;;;9.68;100.00;101371.50;1993639;28;20033;-67
2022/09/18 01:08:26;;;;;;;6.78;4.13;;;;;;;9.67;100.00;101373.25;1993691;28;20050;-66
2022/09/18 01:10:23;;;;;;;11.15;4.32;;;;;;;9.72;100.00;101371.34;1990750;28;20115;-68
2022/09/18 01:11:35;;;;;;;11.07;4.40;;;;;;;9.70;100.00;101380.97;1993585;28;20020;-67
2022/09/18 01:13:54;;;;;;;8.88;4.10;;;;;;;9.70;100.00;101378.38;1993412;28;20028;-68
2022/09/18 01:15:15;;;;;;;9.77;4.03;;;;;;;9.71;100.00;101380.06;1976636;28;20062;-66
2022/09/18 01:16:34;;;;;;;12.93;4.88;;;;;;;9.72;100.00;101376.56;1977004;28;20055;-66
2022/09/18 01:17:49;;;;;;;11.60;4.18;;;;;;;9.72;100.00;101386.97;1988917;28;20506;-66
2022/09/18 01:19:10;;;;;;;10.70;3.80;;;;;;;9.71;100.00;101397.47;1992102;28;20059;-67
2022/09/18 01:20:48;;;;;;;7.60;3.88;;;;;;;9.71;100.00;101389.66;1988741;28;20026;-67
2022/09/18 01:22:24;;;;;;;10.07;3.97;;;;;;;9.70;100.00;101383.59;1989801;28;20035;-67
2022/09/18 01:23:52;;;;;;;9.45;4.00;;;;;;;9.73;100.00;101388.72;1992481;28;20465;-66
2022/09/18 01:25:11;;;;;;;13.35;4.00;;;;;;;9.73;100.00;101388.72;1993127;28;20045;-67
2022/09/18 01:26:42;;;;;;;8.70;3.75;;;;;;;9.73;100.00;101378.28;1992849;28;20032;-66
2022/09/18 01:28:23;;;;;;;9.52;3.70;;;;;;;9.71;100.00;101379.25;1992374;28;20024;-67
2022/09/18 01:29:49;;;;;;;7.97;3.60;;;;;;;9.70;100.00;101380.97;1992012;28;20012;-66
2022/09/18 01:30:56;;;;;;;9.48;4.00;;;;;;;9.71;100.00;101382.69;1992985;28;20036;-67
2022/09/18 01:32:14;;;;;;;7.80;3.97;;;;;;;9.73;100.00;101387.84;1993286;28;20045;-67
2022/09/18 01:33:30;;;;;;;11.50;3.83;;;;;;;9.72;100.00;101386.97;1992939;28;20038;-67
2022/09/18 01:34:41;;;;;;;10.63;3.85;;;;;;;9.71;100.00;101374.84;1993173;28;20020;-67
2022/09/18 01:35:48;;;;;;;12.07;4.25;;;;;;;9.71;100.00;101380.06;1993191;28;20040;-67
2022/09/18 01:36:58;;;;;;;14.02;4.32;;;;;;;9.72;100.00;101379.16;1985402;28;20028;-67
2022/09/18 01:38:10;;;;;;;11.05;4.47;;;;;;;9.72;100.00;101376.56;1989887;28;20025;-67
2022/09/18 01:39:15;;;;;;;13.23;4.03;;;;;;;9.71;100.00;101374.84;1990849;28;20082;-67
2022/09/18 01:40:25;;;;;;;15.25;4.60;;;;;;;9.71;100.00;101369.66;1993218;28;20537;-67
2022/09/18 01:41:28;;;;;;;9.88;3.97;;;;;;;9.70;100.00;101373.16;1993046;28;20032;-68
2022/09/18 01:42:31;;;;;;;10.55;4.07;;;;;;;9.69;100.00;101376.69;1993223;28;20027;-68
2022/09/18 01:43:33;;;;;;;14.90;4.10;;;;;;;9.69;100.00;101371.47;1993032;28;20026;-67
2022/09/18 01:44:34;;;;;;;7.97;4.35;;;;;;;9.70;100.00;101365.34;1992999;28;20028;-68
2022/09/18 01:45:40;;;;;;;9.18;4.25;;;;;;;9.71;100.00;101363.59;1993149;28;20036;-68
2022/09/18 01:46:41;;;;;;;9.05;4.55;;;;;;;9.70;100.00;101373.16;1993123;28;20432;-68
2022/09/18 01:47:56;;;;;;;13.20;4.53;;;;;;;9.71;100.00;101369.66;1993025;28;20036;-68
2022/09/18 01:49:28;;;;;;;9.90;4.15;;;;;;;9.68;100.00;101369.72;1993130;28;20021;-68
2022/09/18 01:50:32;;;;;;;12.43;4.35;;;;;;;9.69;100.00;101361.03;1993074;28;20602;-67
2022/09/18 01:51:51;;;;;;;12.73;4.85;;;;;;;9.69;100.00;101362.78;1992948;28;20020;-66
2022/09/18 01:53:07;;;;;;;12.18;4.82;;;;;;;9.69;100.00;101363.63;1992874;28;20082;-66
2022/09/18 01:54:21;;;;;;;17.92;5.05;;;;;;;9.69;100.00;101361.03;1992976;28;20047;-68
2022/09/18 01:55:26;;;;;;;10.02;4.60;;;;;;;9.67;100.00;101360.22;1993120;28;20034;-67
2022/09/18 01:56:37;;;;;;;14.50;5.43;;;;;;;9.66;100.00;101361.97;1992961;28;20021;-67
2022/09/18 01:57:52;;;;;;;12.85;5.60;;;;;;;9.66;100.00;101361.13;1993470;28;20031;-67
2022/09/18 01:58:56;;;;;;;12.40;5.57;;;;;;;9.65;100.00;101360.25;1993075;28;20024;-67
2022/09/18 02:00:03;;;;;;;13.40;5.93;;;;;;;9.64;100.00;101362.91;1992827;28;20041;-67
2022/09/18 02:01:11;;;;;;;12.57;5.68;;;;;;;9.64;100.00;101352.47;1993110;28;20116;-67
2022/09/18 02:02:26;;;;;;;14.38;5.97;;;;;;;9.66;100.00;101361.13;1992942;28;20049;-65
2022/09/18 02:03:33;;;;;;;13.93;5.65;;;;;;;9.65;100.00;101359.41;1992169;28;20025;-67
2022/09/18 02:04:36;;;;;;;12.75;5.90;;;;;;;9.65;100.00;101360.25;1992113;28;20055;-67
2022/09/18 02:05:47;;;;;;;17.05;6.22;;;;;;;9.65;100.00;101351.59;1992966;28;20555;-66
2022/09/18 02:06:58;;;;;;;19.25;6.22;;;;;;;9.64;100.00;101347.28;1992811;28;20028;-66
2022/09/18 02:08:24;;;;;;;16.20;6.45;;;;;;;9.63;100.00;101346.44;1992927;28;20048;-67
2022/09/18 02:09:21;;;;;;;14.25;6.07;;;;;;;9.63;100.00;101348.19;1990594;28;20044;-67
2022/09/18 02:10:24;;;;;;;13.48;6.28;;;;;;;9.64;100.00;101347.28;1992768;28;20027;-66
2022/09/18 02:11:23;;;;;;;16.10;6.60;;;;;;;9.68;100.00;101346.28;1992842;28;20036;-67
2022/09/18 02:12:25;;;;;;;11.65;5.97;;;;;;;9.68;100.00;101348.88;1992725;28;20046;-67
2022/09/18 02:13:31;;;;;;;16.35;6.90;;;;;;;9.72;100.00;101355.69;2000130;28;20059;-67
2022/09/18 02:14:39;;;;;;;20.23;6.65;;;;;;;9.74;100.00;101347.84;1999667;28;20134;-67
2022/09/18 02:15:42;;;;;;;14.68;6.05;;;;;;;9.75;100.00;101355.63;1991136;28;20043;-68
2022/09/18 02:16:56;;;;;;;22.58;6.68;;;;;;;9.77;100.00;101358.19;1992721;28;20021;-66
2022/09/18 02:18:02;;;;;;;14.52;6.13;;;;;;;9.80;100.00;101347.66;1992766;28;20028;-66
2022/09/18 02:19:09;;;;;;;22.92;6.53;;;;;;;9.81;100.00;101353.75;1992670;28;20036;-67
2022/09/18 02:20:22;;;;;;;17.00;6.30;;;;;;;9.82;100.00;101350.22;1992104;28;20045;-66
2022/09/18 02:21:27;;;;;;;17.77;6.00;;;;;;;9.82;100.00;101350.22;1987120;28;20485;-69
2022/09/18 02:22:30;;;;;;;14.05;5.82;;;;;;;9.82;100.00;101347.63;1994017;28;20372;-65
2022/09/18 02:23:32;;;;;;;16.85;6.10;;;;;;;9.84;100.00;101348.41;1994559;28;20391;-66
2022/09/18 02:24:35;;;;;;;15.18;6.13;;;;;;;9.84;100.00;101348.41;1994595;28;20088;-66
2022/09/18 02:25:39;;;;;;;17.73;6.15;;;;;;;9.84;100.00;101340.59;1994467;28;20065;-66
2022/09/18 02:26:40;;;;;;;15.15;5.82;;;;;;;9.82;100.00;101347.63;1994598;28;20028;-65
2022/09/18 02:27:39;;;;;;;14.93;5.78;;;;;;;9.85;100.00;101348.38;1993581;28;20050;-66
2022/09/18 02:28:39;;;;;;;20.48;6.05;;;;;;;9.84;100.00;101341.47;1993875;28;20088;-65
2022/09/18 02:29:38;;;;;;;13.52;5.20;;;;;;;9.85;100.00;101347.53;1994392;28;20035;-67
2022/09/18 02:30:39;;;;;;;16.30;5.80;;;;;;;9.83;100.00;101338.88;1994732;28;20025;-66
2022/09/18 02:31:38;;;;;;;16.00;5.60;;;;;;;9.86;100.00;101341.41;1994373;28;20568;-64
2022/09/18 02:32:38;;;;;;;12.43;5.72;;;;;;;9.85;100.00;101335.34;1994580;28;20056;-65
2022/09/18 02:33:37;;;;;;;17.33;5.95;;;;;;;9.86;100.00;101337.03;1994716;28;20020;-65
2022/09/18 02:34:34;;;;;;;19.40;5.82;;;;;;;9.86;100.00;101336.19;1994689;28;20028;-65
2022/09/18 02:35:45;;;;;;;18.95;6.05;;;;;;;9.86;100.00;101336.19;1994348;28;20103;-64
2022/09/18 02:37:28;;;;;;;15.13;5.25;;;;;;;9.86;100.00;101328.38;1994570;28;20027;-67
2022/09/18 02:38:40;;;;;;;12.13;4.72;;;;;;;9.83;100.00;101334.53;1988650;28;20055;-64
2022/09/18 02:40:11;;;;;;;15.35;5.20;;;;;;;9.85;100.00;101337.09;1991944;28;20020;-66
2022/09/18 02:41:22;;;;;;;15.20;4.78;;;;;;;9.84;100.00;101331.03;1994352;28;20094;-66
2022/09/18 02:43:02;;;;;;;14.70;5.07;;;;;;;9.83;100.00;101326.72;1994285;28;20060;-65
2022/09/18 02:44:26;;;;;;;19.10;4.78;;;;;;;9.82;100.00;101329.38;1977692;28;20584;-63
2022/09/18 02:45:53;;;;;;;14.75;4.90;;;;;;;9.82;100.00;101330.22;1985214;28;20049;-66
2022/09/18 02:47:53;;;;;;;16.85;4.97;;;;;;;9.82;100.00;101329.38;1994499;28;20099;-67
2022/09/18 02:49:17;;;;;;;11.95;4.07;;;;;;;9.83;100.00;101325.84;1969945;28;20026;-65
2022/09/18 02:50:36;;;;;;;17.67;4.75;;;;;;;9.81;100.00;101328.50;1969984;28;20583;-64
2022/09/18 02:51:57;;;;;;;13.25;4.63;;;;;;;9.83;100.00;101331.06;1994565;28;20025;-65
2022/09/18 02:53:12;;;;;;;15.57;4.80;;;;;;;9.80;100.00;101337.25;1994161;28;20123;-64
2022/09/18 02:54:32;;;;;;;12.10;4.22;;;;;;;9.84;100.00;101343.19;2001619;28;20049;-65
2022/09/18 02:55:45;;;;;;;20.17;4.55;;;;;;;9.84;100.00;101340.59;1997603;28;20020;-65
2022/09/18 02:56:54;;;;;;;15.45;4.22;;;;;;;9.83;100.00;101336.28;1994133;28;20033;-66
2022/09/18 02:58:01;;;;;;;11.15;4.18;;;;;;;9.85;100.00;101332.72;1994608;28;20481;-66
2022/09/18 02:59:15;;;;;;;12.52;3.95;;;;;;;9.86;100.00;101334.41;1994627;28;20024;-66
2022/09/18 03:00:17;;;;;;;10.10;4.00;;;;;;;9.84;100.00;101322.34;1994508;28;20500;-66
2022/09/18 03:01:19;;;;;;;10.40;3.95;;;;;;;9.87;100.00;101324.84;1994557;28;20043;-67
2022/09/18 03:02:21;;;;;;;15.50;4.07;;;;;;;9.84;100.00;101320.59;1994551;28;20060;-65
2022/09/18 03:03:24;;;;;;;15.55;4.60;;;;;;;9.87;100.00;101323.13;1993832;28;20085;-67
2022/09/18 03:04:25;;;;;;;13.05;4.22;;;;;;;9.89;100.00;101323.06;1993910;28;20071;-66
2022/09/18 03:05:22;;;;;;;11.57;4.22;;;;;;;9.88;100.00;101323.94;1994541;28;20020;-67
2022/09/18 03:06:19;;;;;;;15.27;4.10;;;;;;;9.88;100.00;101324.81;1994554;28;20066;-66
2022/09/18 03:07:18;;;;;;;13.45;4.47;;;;;;;9.89;100.00;101325.69;1994565;28;20033;-66
2022/09/18 03:08:15;;;;;;;10.80;3.63;;;;;;;9.91;100.00;101323.84;1994558;28;20074;-66
2022/09/18 03:09:14;;;;;;;14.35;3.92;;;;;;;9.92;100.00;101328.16;1992242;28;20387;-65
2022/09/18 03:10:12;;;;;;;17.77;4.10;;;;;;;9.93;100.00;101329.88;1994535;28;20028;-65
2022/09/18 03:11:09;;;;;;;14.40;4.50;;;;;;;9.94;100.00;101333.31;1994420;28;20440;-67
2022/09/18 03:12:07;;;;;;;16.58;4.07;;;;;;;9.91;100.00;101329.94;1994429;28;20061;-65
2022/09/18 03:13:05;;;;;;;12.70;3.85;;;;;;;9.92;100.00;101330.78;1994420;28;20070;-66
2022/09/18 03:14:03;;;;;;;14.13;4.03;;;;;;;9.95;100.00;101322.84;1994526;28;20419;-66
2022/09/18 03:15:00;;;;;;;15.30;3.80;;;;;;;9.95;100.00;101320.25;1994338;28;20040;-67
2022/09/18 03:15:58;;;;;;;12.02;3.90;;;;;;;9.95;100.00;101325.47;1994455;28;20036;-66
2022/09/18 03:16:58;;;;;;;12.82;3.97;;;;;;;9.93;100.00;101322.06;1994518;28;20039;-66
2022/09/18 03:17:55;;;;;;;12.35;3.72;;;;;;;9.96;100.00;101321.13;1994397;28;20108;-66
2022/09/18 03:18:53;;;;;;;13.05;4.22;;;;;;;9.96;100.00;101310.69;1994425;28;20028;-67
2022/09/18 03:19:50;;;;;;;11.45;3.63;;;;;;;9.96;100.00;101315.91;1994378;28;20094;-68
2022/09/18 03:20:48;;;;;;;9.20;3.67;;;;;;;9.94;100.00;101317.69;1994497;28;20031;-68
2022/09/18 03:21:45;;;;;;;17.08;4.63;;;;;;;9.96;100.00;101321.13;1994402;28;20031;-67
2022/09/18 03:22:43;;;;;;;9.57;3.65;;;;;;;9.95;100.00;101324.63;1994499;28;20427;-67
2022/09/18 03:23:40;;;;;;;15.90;4.22;;;;;;;9.93;100.00;101314.25;1994364;28;20029;-67
2022/09/18 03:24:37;;;;;;;18.63;4.35;;;;;;;9.92;100.00;101318.59;1994445;28;20066;-65
2022/09/18 03:25:35;;;;;;;11.05;3.28;;;;;;;9.95;100.00;101312.44;1994338;28;20099;-66
2022/09/18 03:26:33;;;;;;;14.80;3.70;;;;;;;9.96;100.00;101311.50;1994273;28;20032;-65
2022/09/18 03:27:30;;;;;;;11.98;3.92;;;;;;;9.98;100.00;101316.69;1994433;28;20085;-66
2022/09/18 03:28:30;;;;;;;15.25;3.55;;;;;;;9.93;100.00;101324.69;1994359;28;20052;-65
2022/09/18 03:29:28;;;;;;;;;;;;;;;9.90;100.00;101316.94;1994893;28;20071;-66
2022/09/18 03:30:26;;;;;;;9.55;3.30;;;;;;;9.91;100.00;101305.59;1994198;28;19958;-66
2022/09/18 03:31:23;;;;;;;17.52;3.85;;;;;;;9.93;100.00;101311.63;1994259;28;20511;-67
2022/09/18 03:32:21;;;;;;;11.52;3.67;;;;;;;9.93;100.00;101316.84;1993441;28;20028;-67
2022/09/18 03:33:18;;;;;;;14.93;3.67;;;;;;;9.91;100.00;101323.84;1994177;28;20035;-67
2022/09/18 03:34:15;;;;;;;15.23;3.67;;;;;;;9.91;100.00;101329.06;1994342;28;20042;-67
2022/09/18 03:35:13;;;;;;;14.98;4.10;;;;;;;9.90;100.00;101317.81;1994334;28;20028;-67
2022/09/18 03:36:10;;;;;;;15.38;3.92;;;;;;;9.94;100.00;101318.56;1994256;28;20050;-66
2022/09/18 03:37:08;;;;;;;14.95;3.53;;;;;;;9.95;100.00;101324.63;1994350;28;20031;-66
2022/09/18 03:38:05;;;;;;;15.07;3.38;;;;;;;9.95;100.00;101320.25;1994345;28;20029;-67
2022/09/18 03:39:04;;;;;;;16.60;3.78;;;;;;;9.95;100.00;101325.47;1992239;28;20491;-65
2022/09/18 03:40:02;;;;;;;9.43;3.40;;;;;;;9.95;100.00;101320.25;1994197;28;20078;-66
2022/09/18 03:41:00;;;;;;;15.77;3.95;;;;;;;9.94;100.00;101313.34;1993587;28;20016;-66
2022/09/18 03:41:57;;;;;;;13.13;3.70;;;;;;;9.94;100.00;101308.13;1993757;28;20091;-66
2022/09/18 03:42:54;;;;;;;12.82;3.13;;;;;;;9.94;100.00;101307.25;1994261;28;20356;-66
2022/09/18 03:43:52;;;;;;;12.68;3.45;;;;;;;9.94;100.00;101313.34;1994327;28;20060;-66
2022/09/18 03:44:49;;;;;;;15.13;3.55;;;;;;;9.93;100.00;101309.03;1994156;28;20158;-66
2022/09/18 03:45:47;;;;;;;11.38;3.15;;;;;;;9.95;100.00;101314.19;1994355;28;20089;-66
2022/09/18 03:46:45;;;;;;;12.25;3.40;;;;;;;9.94;100.00;101313.34;1994206;28;20024;-66
2022/09/18 03:47:43;;;;;;;17.25;3.78;;;;;;;9.94;100.00;101310.72;1994164;28;20016;-66
2022/09/18 03:48:40;;;;;;;10.85;3.33;;;;;;;9.90;100.00;101307.38;1994203;28;20066;-67
2022/09/18 03:49:38;;;;;;;9.07;2.80;;;;;;;9.90;100.00;101303.91;1994240;28;20044;-65
2022/09/18 03:50:35;;;;;;;12.32;2.67;;;;;;;9.91;100.00;101308.22;1994196;28;20471;-66
2022/09/18 03:51:33;;;;;;;12.15;2.90;;;;;;;9.90;100.00;101311.72;1994289;28;20123;-66
2022/09/18 03:52:30;;;;;;;11.82;3.00;;;;;;;9.93;100.00;101311.63;1994029;28;20027;-66
2022/09/18 03:53:27;;;;;;;10.32;2.67;;;;;;;9.89;100.00;101307.44;1994217;28;20024;-66
2022/09/18 03:54:25;;;;;;;14.45;2.75;;;;;;;9.88;100.00;101303.97;1994233;28;20029;-65
2022/09/18 03:55:22;;;;;;;11.13;2.78;;;;;;;9.86;100.00;101305.75;1994145;28;20028;-66
2022/09/18 03:56:20;;;;;;;9.88;2.85;;;;;;;9.88;100.00;101303.97;1994186;28;20032;-66
2022/09/18 03:57:18;;;;;;;9.90;2.35;;;;;;;9.88;100.00;101300.47;1994167;28;20170;-66
2022/09/18 03:58:15;;;;;;;10.23;2.80;;;;;;;9.88;100.00;101301.34;1994153;28;20082;-67
2022/09/18 03:59:12;;;;;;;9.20;2.35;;;;;;;9.88;100.00;101297.88;1994092;28;20028;-66
2022/09/18 04:00:11;;;;;;;15.10;2.70;;;;;;;9.87;100.00;101301.41;1993367;28;20043;-66
2022/09/18 04:01:09;;;;;;;11.52;2.83;;;;;;;9.85;100.00;101298.00;1993569;28;20159;-66
2022/09/18 04:02:06;;;;;;;10.02;2.53;;;;;;;9.84;100.00;101291.06;1992878;28;20107;-66
2022/09/18 04:03:04;;;;;;;9.93;2.50;;;;;;;9.86;100.00;101299.69;1993475;28;20024;-67
2022/09/18 04:04:01;;;;;;;10.27;2.83;;;;;;;9.85;100.00;101303.22;1994078;28;20491;-67
2022/09/18 04:04:59;;;;;;;12.73;2.60;;;;;;;9.84;100.00;101291.94;1993937;28;20032;-66
2022/09/18 04:05:56;;;;;;;13.18;3.13;;;;;;;9.81;100.00;101293.78;1994165;28;20053;-66
2022/09/18 04:06:53;;;;;;;14.25;2.08;;;;;;;9.83;100.00;101295.44;1994117;28;20028;-67
2022/09/18 04:07:51;;;;;;;9.02;2.15;;;;;;;9.82;100.00;101293.72;1994098;28;20049;-65
2022/09/18 04:08:49;;;;;;;11.30;2.13;;;;;;;9.82;100.00;101293.72;1994066;28;20025;-67
2022/09/18 04:09:46;;;;;;;13.70;2.30;;;;;;;9.83;100.00;101291.97;1991780;28;20028;-67
2022/09/18 04:10:46;;;;;;;9.48;2.03;;;;;;;9.75;100.00;101290.47;1994097;28;20021;-66
2022/09/18 04:11:44;;;;;;;;;;;;;;;9.74;100.00;101296.56;1994493;28;20037;-66
2022/09/18 04:12:44;;;;;;;8.00;1.85;;;;;;;9.73;100.00;101291.41;1994086;28;19912;-66
2022/09/18 04:13:41;;;;;;;;;;;;;;;9.70;100.00;101286.28;1994468;28;20387;-67
2022/09/18 04:14:39;;;;;;;8.13;1.80;;;;;;;9.71;100.00;101291.47;1994032;28;19909;-68
2022/09/18 04:15:36;;;;;;;10.32;2.10;;;;;;;9.70;100.00;101284.53;1993949;28;20024;-67
2022/09/18 04:16:34;;;;;;;10.95;1.90;;;;;;;9.72;100.00;101285.34;1993999;28;20116;-66
2022/09/18 04:17:31;;;;;;;8.10;1.92;;;;;;;9.72;100.00;101292.31;1994012;28;20091;-67
2022/09/18 04:18:29;;;;;;;7.38;2.00;;;;;;;9.71;100.00;101291.47;1993941;28;20020;-67
2022/09/18 04:19:27;;;;;;;7.90;2.40;;;;;;;9.72;100.00;101295.75;1994019;28;20029;-67
2022/09/18 04:20:24;;;;;;;8.68;2.15;;;;;;;9.69;100.00;101288.06;1993915;28;20379;-67
2022/09/18 04:21:22;;;;;;;6.40;1.95;;;;;;;9.70;100.00;101294.09;1994006;28;20082;-67
2022/09/18 04:22:21;;;;;;;7.60;1.88;;;;;;;9.70;100.00;101292.38;1993328;28;20492;-68
2022/09/18 04:23:19;;;;;;;10.80;2.40;;;;;;;9.70;100.00;101289.75;1993419;28;20055;-68
2022/09/18 04:24:16;;;;;;;13.85;2.00;;;;;;;9.72;100.00;101293.16;1993845;28;20107;-68
2022/09/18 04:25:15;;;;;;;11.00;2.13;;;;;;;9.70;100.00;101294.09;1994024;28;20456;-68
2022/09/18 04:26:13;;;;;;;14.70;2.40;;;;;;;9.71;100.00;101288.03;1993894;28;20444;-67
2022/09/18 04:27:10;;;;;;;10.27;2.17;;;;;;;9.73;100.00;101297.50;1994033;28;20035;-68
2022/09/18 04:28:08;;;;;;;9.18;2.05;;;;;;;9.76;100.00;101301.75;1993898;28;20033;-68
2022/09/18 04:29:06;;;;;;;15.32;2.22;;;;;;;9.73;100.00;101294.88;1993911;28;20078;-68
2022/09/18 04:30:04;;;;;;;12.65;2.65;;;;;;;9.75;100.00;101292.22;1993768;28;20066;-68
2022/09/18 04:31:02;;;;;;;11.98;2.03;;;;;;;9.76;100.00;101291.31;1993773;28;20398;-68
2022/09/18 04:31:59;;;;;;;10.70;2.35;;;;;;;9.77;100.00;101306.91;1993945;28;20028;-68
2022/09/18 04:32:57;;;;;;;10.60;2.15;;;;;;;9.74;100.00;101296.56;1993761;28;20032;-68
2022/09/18 04:33:54;;;;;;;8.35;2.17;;;;;;;9.73;100.00;101289.66;1993236;28;20127;-67
2022/09/18 04:34:51;;;;;;;11.93;2.75;;;;;;;9.72;100.00;101292.31;1993298;28;20103;-68
2022/09/18 04:35:49;;;;;;;9.90;2.50;;;;;;;9.74;100.00;101296.56;1993818;28;20122;-67
2022/09/18 04:36:46;;;;;;;11.05;2.03;;;;;;;9.76;100.00;101293.94;1993816;28;20028;-67
2022/09/18 04:37:44;;;;;;;13.25;2.28;;;;;;;9.75;100.00;101293.06;1993902;28;20441;-67
2022/09/18 04:38:41;;;;;;;9.52;2.70;;;;;;;9.75;100.00;101295.66;1993767;28;20023;-67
2022/09/18 04:39:39;;;;;;;14.18;3.03;;;;;;;9.74;100.00;101299.19;1991778;28;20549;-68
2022/09/18 04:40:36;;;;;;;14.50;2.67;;;;;;;9.78;100.00;101298.19;1993797;28;20103;-68
2022/09/18 04:41:34;;;;;;;11.15;2.63;;;;;;;9.76;100.00;101299.13;1993795;28;20063;-68
2022/09/18 04:42:31;;;;;;;8.88;2.60;;;;;;;9.77;100.00;101299.09;1993853;28;20016;-68
2022/09/18 04:43:29;;;;;;;10.57;2.70;;;;;;;9.78;100.00;101298.19;1993700;28;20099;-68
2022/09/18 04:44:26;;;;;;;10.38;3.03;;;;;;;9.81;100.00;101305.06;1993820;28;20128;-67
2022/09/18 04:45:24;;;;;;;11.15;2.90;;;;;;;9.79;100.00;101302.50;1993684;28;20047;-68
2022/09/18 04:46:21;;;;;;;11.52;3.08;;;;;;;9.74;100.00;101306.13;1993706;28;20028;-68
2022/09/18 04:47:18;;;;;;;8.13;2.90;;;;;;;9.75;100.00;101297.44;1993688;28;20031;-68
2022/09/18 04:48:17;;;;;;;15.75;2.90;;;;;;;9.77;100.00;101306.91;1993798;28;20027;-68
2022/09/18 04:49:15;;;;;;;10.52;2.97;;;;;;;9.77;100.00;101296.50;1993666;28;20039;-69
2022/09/18 04:50:13;;;;;;;7.90;3.25;;;;;;;9.78;100.00;101298.19;1993792;28;20387;-68
2022/09/18 04:51:11;;;;;;;9.95;3.00;;;;;;;9.79;100.00;101299.03;1993771;28;20692;-68
2022/09/18 04:52:08;;;;;;;11.23;3.00;;;;;;;9.75;100.00;101295.66;1993701;28;20035;-68
2022/09/18 04:53:07;;;;;;;8.65;2.47;;;;;;;9.70;100.00;101300.19;1993607;28;20039;-69
2022/09/18 04:54:04;;;;;;;9.77;2.85;;;;;;;9.69;100.00;101298.50;1993795;28;20052;-67